sensor_id;sensor_type;location;lat;lon;timestamp;temperature;humidity
49236;DHT22;35067;48.134;8.378;2023-02-02T00:00:04;1.60;99.90
49236;DHT22;35067;48.134;8.378;2023-02-02T00:02:06;1.60;99.90
49236;DHT22;35067;48.134;8.378;2023-02-02T00:04:08;1.70;99.90
49236;DHT22;35067;48.134;8.378;2023-02-02T00:06:19;1.70;99.90
49236;DHT22;35067;48.134;8.378;2023-02-02T00:08:21;1.80;99.90
49236;DHT22;35067;48.134;8.378;2023-02-02T00:10:22;1.80;99.90
49236;DHT22;35067;48.134;8.378;2023-02-02T00:12:23;1.80;99.90
49236;DHT22;35067;48.134;8.378;2023-02-02T00:14:23;1.70;99.90
49236;DHT22;35067;48.134;8.378;2023-02-02T00:18:28;1.70;99.90
49236;DHT22;35067;48.134;8.378;2023-02-02T00:20:28;1.70;99.90
49236;DHT22;35067;48.134;8.378;2023-02-02T00:22:29;1.80;99.90
49236;DHT22;35067;48.134;8.378;2023-02-02T00:24:30;1.80;99.90
49236;DHT22;35067;48.134;8.378;2023-02-02T00:26:30;1.70;99.90
49236;DHT22;35067;48.134;8.378;2023-02-02T00:28:31;1.60;99.90
49236;DHT22;35067;48.134;8.378;2023-02-02T00:30:32;1.60;99.90
49236;DHT22;35067;48.134;8.378;2023-02-02T00:32:32;1.60;99.90
49236;DHT22;35067;48.134;8.378;2023-02-02T00:34:33;1.60;99.90
49236;DHT22;35067;48.134;8.378;2023-02-02T00:36:34;1.50;99.90
49236;DHT22;35067;48.134;8.378;2023-02-02T00:38:34;1.50;99.90
49236;DHT22;35067;48.134;8.378;2023-02-02T00:40:37;1.50;99.90
49236;DHT22;35067;48.134;8.378;2023-02-02T00:42:38;1.60;99.90
49236;DHT22;35067;48.134;8.378;2023-02-02T00:44:38;1.60;99.90
49236;DHT22;35067;48.134;8.378;2023-02-02T00:46:57;1.50;99.90
49236;DHT22;35067;48.134;8.378;2023-02-02T00:48:58;1.50;99.90
49236;DHT22;35067;48.134;8.378;2023-02-02T00:50:58;1.50;99.90
49236;DHT22;35067;48.134;8.378;2023-02-02T00:53:01;1.60;99.90
49236;DHT22;35067;48.134;8.378;2023-02-02T00:55:02;1.60;99.90
49236;DHT22;35067;48.134;8.378;2023-02-02T00:57:03;1.70;99.90
49236;DHT22;35067;48.134;8.378;2023-02-02T00:59:04;1.60;99.90
49236;DHT22;35067;48.134;8.378;2023-02-02T01:01:05;1.60;99.90
49236;DHT22;35067;48.134;8.378;2023-02-02T01:03:05;1.50;99.90
49236;DHT22;35067;48.134;8.378;2023-02-02T01:05:06;1.50;99.90
49236;DHT22;35067;48.134;8.378;2023-02-02T01:07:07;1.50;99.90
49236;DHT22;35067;48.134;8.378;2023-02-02T01:09:08;1.50;99.90
49236;DHT22;35067;48.134;8.378;2023-02-02T01:11:09;1.50;99.90
49236;DHT22;35067;48.134;8.378;2023-02-02T01:13:09;1.50;99.90
49236;DHT22;35067;48.134;8.378;2023-02-02T01:15:11;1.40;99.90
49236;DHT22;35067;48.134;8.378;2023-02-02T01:17:12;1.50;99.90
49236;DHT22;35067;48.134;8.378;2023-02-02T01:19:14;1.50;99.90
49236;DHT22;35067;48.134;8.378;2023-02-02T01:21:15;1.50;99.90
49236;DHT22;35067;48.134;8.378;2023-02-02T01:23:16;1.60;99.90
49236;DHT22;35067;48.134;8.378;2023-02-02T01:25:17;1.60;99.90
49236;DHT22;35067;48.134;8.378;2023-02-02T01:27:18;1.50;99.90
49236;DHT22;35067;48.134;8.378;2023-02-02T01:29:18;1.50;99.90
49236;DHT22;35067;48.134;8.378;2023-02-02T01:31:19;1.60;99.90
49236;DHT22;35067;48.134;8.378;2023-02-02T01:33:21;1.50;99.90
49236;DHT22;35067;48.134;8.378;2023-02-02T01:35:21;1.50;99.90
49236;DHT22;35067;48.134;8.378;2023-02-02T01:37:22;1.40;99.90
49236;DHT22;35067;48.134;8.378;2023-02-02T01:39:23;1.40;99.90
49236;DHT22;35067;48.134;8.378;2023-02-02T01:41:25;1.50;99.90
49236;DHT22;35067;48.134;8.378;2023-02-02T01:43:49;1.50;99.90
49236;DHT22;35067;48.134;8.378;2023-02-02T01:45:53;1.60;99.90
49236;DHT22;35067;48.134;8.378;2023-02-02T01:47:58;1.60;99.90
49236;DHT22;35067;48.134;8.378;2023-02-02T01:49:59;1.50;99.90
49236;DHT22;35067;48.134;8.378;2023-02-02T01:52:00;1.60;99.90
49236;DHT22;35067;48.134;8.378;2023-02-02T01:54:02;1.60;99.90
49236;DHT22;35067;48.134;8.378;2023-02-02T01:56:07;1.60;99.90
49236;DHT22;35067;48.134;8.378;2023-02-02T01:58:17;1.60;99.90
49236;DHT22;35067;48.134;8.378;2023-02-02T02:00:21;1.70;99.90
49236;DHT22;35067;48.134;8.378;2023-02-02T02:02:26;1.60;99.90
49236;DHT22;35067;48.134;8.378;2023-02-02T02:04:28;1.70;99.90
49236;DHT22;35067;48.134;8.378;2023-02-02T02:06:30;1.60;99.90
49236;DHT22;35067;48.134;8.378;2023-02-02T02:08:38;1.70;99.90
49236;DHT22;35067;48.134;8.378;2023-02-02T02:11:03;1.70;99.90
49236;DHT22;35067;48.134;8.378;2023-02-02T02:13:05;1.70;99.90
49236;DHT22;35067;48.134;8.378;2023-02-02T02:15:06;1.80;99.90
49236;DHT22;35067;48.134;8.378;2023-02-02T02:25:47;1.90;99.90
49236;DHT22;35067;48.134;8.378;2023-02-02T02:36:03;1.80;99.90
49236;DHT22;35067;48.134;8.378;2023-02-02T02:40:46;1.80;99.90
49236;DHT22;35067;48.134;8.378;2023-02-02T02:42:58;1.80;99.90
49236;DHT22;35067;48.134;8.378;2023-02-02T02:45:03;1.80;99.90
49236;DHT22;35067;48.134;8.378;2023-02-02T02:47:07;1.80;99.90
49236;DHT22;35067;48.134;8.378;2023-02-02T02:49:09;1.90;99.90
49236;DHT22;35067;48.134;8.378;2023-02-02T02:53:52;1.80;99.90
49236;DHT22;35067;48.134;8.378;2023-02-02T02:55:53;1.80;99.90
49236;DHT22;35067;48.134;8.378;2023-02-02T02:58:08;1.80;99.90
49236;DHT22;35067;48.134;8.378;2023-02-02T03:00:37;1.80;99.90
49236;DHT22;35067;48.134;8.378;2023-02-02T03:02:55;1.80;99.90
49236;DHT22;35067;48.134;8.378;2023-02-02T03:07:48;1.80;99.90
49236;DHT22;35067;48.134;8.378;2023-02-02T03:09:52;1.70;99.90
49236;DHT22;35067;48.134;8.378;2023-02-02T03:11:54;1.80;99.90
49236;DHT22;35067;48.134;8.378;2023-02-02T03:13:55;1.80;99.90
49236;DHT22;35067;48.134;8.378;2023-02-02T03:15:57;1.80;99.90
49236;DHT22;35067;48.134;8.378;2023-02-02T03:17:58;1.80;99.90
49236;DHT22;35067;48.134;8.378;2023-02-02T03:19:58;1.80;99.90
49236;DHT22;35067;48.134;8.378;2023-02-02T03:21:59;1.80;99.90
49236;DHT22;35067;48.134;8.378;2023-02-02T03:24:00;1.80;99.90
49236;DHT22;35067;48.134;8.378;2023-02-02T03:26:01;1.70;99.90
49236;DHT22;35067;48.134;8.378;2023-02-02T03:28:02;1.60;99.90
49236;DHT22;35067;48.134;8.378;2023-02-02T03:30:05;1.60;99.90
49236;DHT22;35067;48.134;8.378;2023-02-02T03:32:08;1.60;99.90
49236;DHT22;35067;48.134;8.378;2023-02-02T03:34:09;1.50;99.90
49236;DHT22;35067;48.134;8.378;2023-02-02T03:36:09;1.60;99.90
49236;DHT22;35067;48.134;8.378;2023-02-02T03:38:10;1.50;99.90
49236;DHT22;35067;48.134;8.378;2023-02-02T03:40:12;1.50;99.90
49236;DHT22;35067;48.134;8.378;2023-02-02T03:42:13;1.50;99.90
49236;DHT22;35067;48.134;8.378;2023-02-02T03:44:13;1.50;99.90
49236;DHT22;35067;48.134;8.378;2023-02-02T03:46:14;1.50;99.90
49236;DHT22;35067;48.134;8.378;2023-02-02T03:48:15;1.50;99.90
49236;DHT22;35067;48.134;8.378;2023-02-02T03:50:16;1.50;99.90
49236;DHT22;35067;48.134;8.378;2023-02-02T03:52:16;1.50;99.90
49236;DHT22;35067;48.134;8.378;2023-02-02T03:54:17;1.50;99.90
49236;DHT22;35067;48.134;8.378;2023-02-02T03:56:18;1.50;99.90
49236;DHT22;35067;48.134;8.378;2023-02-02T03:58:19;1.50;99.90
49236;DHT22;35067;48.134;8.378;2023-02-02T04:00:21;1.50;99.90
49236;DHT22;35067;48.134;8.378;2023-02-02T04:02:22;1.60;99.90
49236;DHT22;35067;48.134;8.378;2023-02-02T04:04:23;1.50;99.90
49236;DHT22;35067;48.134;8.378;2023-02-02T04:06:24;1.60;99.90
49236;DHT22;35067;48.134;8.378;2023-02-02T04:08:25;1.50;99.90
49236;DHT22;35067;48.134;8.378;2023-02-02T04:10:26;1.50;99.90
49236;DHT22;35067;48.134;8.378;2023-02-02T04:12:26;1.60;99.90
49236;DHT22;35067;48.134;8.378;2023-02-02T04:14:27;1.60;99.90
49236;DHT22;35067;48.134;8.378;2023-02-02T04:16:28;1.60;99.90
49236;DHT22;35067;48.134;8.378;2023-02-02T04:18:34;1.60;99.90
49236;DHT22;35067;48.134;8.378;2023-02-02T04:20:37;1.60;99.90
49236;DHT22;35067;48.134;8.378;2023-02-02T04:22:37;1.60;99.90
49236;DHT22;35067;48.134;8.378;2023-02-02T04:24:38;1.60;99.90
49236;DHT22;35067;48.134;8.378;2023-02-02T04:26:39;1.50;99.90
49236;DHT22;35067;48.134;8.378;2023-02-02T04:28:40;1.50;99.90
49236;DHT22;35067;48.134;8.378;2023-02-02T04:30:41;1.50;99.90
49236;DHT22;35067;48.134;8.378;2023-02-02T04:32:42;1.50;99.90
49236;DHT22;35067;48.134;8.378;2023-02-02T04:34:43;1.50;99.90
49236;DHT22;35067;48.134;8.378;2023-02-02T04:36:44;1.50;99.90
49236;DHT22;35067;48.134;8.378;2023-02-02T04:38:51;1.60;99.90
49236;DHT22;35067;48.134;8.378;2023-02-02T04:40:52;1.60;99.90
49236;DHT22;35067;48.134;8.378;2023-02-02T04:42:53;1.50;99.90
49236;DHT22;35067;48.134;8.378;2023-02-02T04:44:53;1.50;99.90
49236;DHT22;35067;48.134;8.378;2023-02-02T04:46:54;1.50;99.90
49236;DHT22;35067;48.134;8.378;2023-02-02T04:48:55;1.60;99.90
49236;DHT22;35067;48.134;8.378;2023-02-02T04:51:03;1.60;99.90
49236;DHT22;35067;48.134;8.378;2023-02-02T04:53:05;1.50;99.90
49236;DHT22;35067;48.134;8.378;2023-02-02T04:55:06;1.60;99.90
49236;DHT22;35067;48.134;8.378;2023-02-02T04:57:07;1.60;99.90
49236;DHT22;35067;48.134;8.378;2023-02-02T04:59:08;1.80;99.90
49236;DHT22;35067;48.134;8.378;2023-02-02T05:01:16;1.90;99.90
49236;DHT22;35067;48.134;8.378;2023-02-02T05:03:18;1.80;99.90
49236;DHT22;35067;48.134;8.378;2023-02-02T05:05:18;1.70;99.90
49236;DHT22;35067;48.134;8.378;2023-02-02T05:07:19;1.80;99.90
49236;DHT22;35067;48.134;8.378;2023-02-02T05:09:20;1.80;99.90
49236;DHT22;35067;48.134;8.378;2023-02-02T05:11:22;1.80;99.90
49236;DHT22;35067;48.134;8.378;2023-02-02T05:13:23;1.80;99.90
49236;DHT22;35067;48.134;8.378;2023-02-02T05:15:24;1.70;99.90
49236;DHT22;35067;48.134;8.378;2023-02-02T05:17:25;1.70;99.90
49236;DHT22;35067;48.134;8.378;2023-02-02T05:19:26;1.80;99.90
49236;DHT22;35067;48.134;8.378;2023-02-02T05:21:27;1.80;99.90
49236;DHT22;35067;48.134;8.378;2023-02-02T05:23:29;1.90;99.90
49236;DHT22;35067;48.134;8.378;2023-02-02T05:25:30;1.90;99.90
49236;DHT22;35067;48.134;8.378;2023-02-02T05:27:32;1.80;99.90
49236;DHT22;35067;48.134;8.378;2023-02-02T05:29:32;1.80;99.90
49236;DHT22;35067;48.134;8.378;2023-02-02T05:31:34;1.90;99.90
49236;DHT22;35067;48.134;8.378;2023-02-02T05:33:35;1.80;99.90
49236;DHT22;35067;48.134;8.378;2023-02-02T05:35:36;1.90;99.90
49236;DHT22;35067;48.134;8.378;2023-02-02T05:37:36;1.80;99.90
49236;DHT22;35067;48.134;8.378;2023-02-02T05:39:37;1.90;99.90
49236;DHT22;35067;48.134;8.378;2023-02-02T05:41:38;1.90;99.90
49236;DHT22;35067;48.134;8.378;2023-02-02T05:43:38;1.80;99.90
49236;DHT22;35067;48.134;8.378;2023-02-02T05:45:39;1.90;99.90
49236;DHT22;35067;48.134;8.378;2023-02-02T05:47:40;2.00;99.90
49236;DHT22;35067;48.134;8.378;2023-02-02T05:49:40;2.00;99.90
49236;DHT22;35067;48.134;8.378;2023-02-02T05:51:50;1.90;99.90
49236;DHT22;35067;48.134;8.378;2023-02-02T05:53:53;1.90;99.90
49236;DHT22;35067;48.134;8.378;2023-02-02T05:55:53;2.00;99.90
49236;DHT22;35067;48.134;8.378;2023-02-02T05:57:54;2.00;99.90
49236;DHT22;35067;48.134;8.378;2023-02-02T05:59:55;2.00;99.90
49236;DHT22;35067;48.134;8.378;2023-02-02T06:01:55;2.00;99.90
49236;DHT22;35067;48.134;8.378;2023-02-02T06:03:56;2.10;99.90
49236;DHT22;35067;48.134;8.378;2023-02-02T06:05:57;2.10;99.90
49236;DHT22;35067;48.134;8.378;2023-02-02T06:07:57;2.00;99.90
49236;DHT22;35067;48.134;8.378;2023-02-02T06:09:58;2.00;99.90
49236;DHT22;35067;48.134;8.378;2023-02-02T06:11:59;2.00;99.90
49236;DHT22;35067;48.134;8.378;2023-02-02T06:13:59;2.00;99.90
49236;DHT22;35067;48.134;8.378;2023-02-02T06:16:00;2.00;99.90
49236;DHT22;35067;48.134;8.378;2023-02-02T06:18:01;2.10;99.90
49236;DHT22;35067;48.134;8.378;2023-02-02T06:20:02;2.10;99.90
49236;DHT22;35067;48.134;8.378;2023-02-02T06:22:03;2.10;99.90
49236;DHT22;35067;48.134;8.378;2023-02-02T06:24:05;2.00;99.90
49236;DHT22;35067;48.134;8.378;2023-02-02T06:26:06;2.00;99.90
49236;DHT22;35067;48.134;8.378;2023-02-02T06:28:07;2.00;99.90
49236;DHT22;35067;48.134;8.378;2023-02-02T06:30:09;2.00;99.90
49236;DHT22;35067;48.134;8.378;2023-02-02T06:32:10;2.10;99.90
49236;DHT22;35067;48.134;8.378;2023-02-02T06:34:11;2.10;99.90
49236;DHT22;35067;48.134;8.378;2023-02-02T06:36:14;2.10;99.90
49236;DHT22;35067;48.134;8.378;2023-02-02T06:38:15;2.00;99.90
49236;DHT22;35067;48.134;8.378;2023-02-02T06:40:16;2.00;99.90
49236;DHT22;35067;48.134;8.378;2023-02-02T06:42:17;2.10;99.90
49236;DHT22;35067;48.134;8.378;2023-02-02T06:44:17;2.20;99.90
49236;DHT22;35067;48.134;8.378;2023-02-02T06:46:20;2.30;99.90
49236;DHT22;35067;48.134;8.378;2023-02-02T06:48:20;2.30;99.90
49236;DHT22;35067;48.134;8.378;2023-02-02T06:50:21;2.10;99.90
49236;DHT22;35067;48.134;8.378;2023-02-02T06:52:22;2.10;99.90
49236;DHT22;35067;48.134;8.378;2023-02-02T06:54:22;2.10;99.90
49236;DHT22;35067;48.134;8.378;2023-02-02T06:56:23;2.10;99.90
49236;DHT22;35067;48.134;8.378;2023-02-02T06:58:24;2.10;99.90
49236;DHT22;35067;48.134;8.378;2023-02-02T07:00:26;2.10;99.90
49236;DHT22;35067;48.134;8.378;2023-02-02T07:02:27;2.20;99.90
49236;DHT22;35067;48.134;8.378;2023-02-02T07:04:28;2.20;99.90
49236;DHT22;35067;48.134;8.378;2023-02-02T07:06:28;2.20;99.90
49236;DHT22;35067;48.134;8.378;2023-02-02T07:08:29;2.20;99.90
49236;DHT22;35067;48.134;8.378;2023-02-02T07:10:30;2.20;99.90
49236;DHT22;35067;48.134;8.378;2023-02-02T07:12:31;2.20;99.90
49236;DHT22;35067;48.134;8.378;2023-02-02T07:14:31;2.10;99.90
49236;DHT22;35067;48.134;8.378;2023-02-02T07:16:32;2.10;99.90
49236;DHT22;35067;48.134;8.378;2023-02-02T07:18:33;2.00;99.90
49236;DHT22;35067;48.134;8.378;2023-02-02T07:20:33;2.00;99.90
49236;DHT22;35067;48.134;8.378;2023-02-02T07:22:34;1.90;99.90
49236;DHT22;35067;48.134;8.378;2023-02-02T07:24:38;1.80;99.90
49236;DHT22;35067;48.134;8.378;2023-02-02T07:26:38;1.80;99.90
49236;DHT22;35067;48.134;8.378;2023-02-02T07:28:39;1.80;99.90
49236;DHT22;35067;48.134;8.378;2023-02-02T07:30:40;1.80;99.90
49236;DHT22;35067;48.134;8.378;2023-02-02T07:32:45;1.80;99.90
49236;DHT22;35067;48.134;8.378;2023-02-02T07:34:49;1.80;99.90
49236;DHT22;35067;48.134;8.378;2023-02-02T07:36:50;1.80;99.90
49236;DHT22;35067;48.134;8.378;2023-02-02T07:38:52;1.80;99.90
49236;DHT22;35067;48.134;8.378;2023-02-02T07:41:02;1.70;99.90
49236;DHT22;35067;48.134;8.378;2023-02-02T07:43:03;1.80;99.90
49236;DHT22;35067;48.134;8.378;2023-02-02T07:45:04;1.80;99.90
49236;DHT22;35067;48.134;8.378;2023-02-02T07:47:05;1.80;99.90
49236;DHT22;35067;48.134;8.378;2023-02-02T07:49:06;1.80;99.90
49236;DHT22;35067;48.134;8.378;2023-02-02T07:51:10;1.80;99.90
49236;DHT22;35067;48.134;8.378;2023-02-02T07:53:12;1.90;99.90
49236;DHT22;35067;48.134;8.378;2023-02-02T07:55:12;1.90;99.90
49236;DHT22;35067;48.134;8.378;2023-02-02T07:57:16;1.90;99.90
49236;DHT22;35067;48.134;8.378;2023-02-02T07:59:16;1.90;99.90
49236;DHT22;35067;48.134;8.378;2023-02-02T08:01:17;1.90;99.90
49236;DHT22;35067;48.134;8.378;2023-02-02T08:03:19;1.90;99.90
49236;DHT22;35067;48.134;8.378;2023-02-02T08:05:20;2.00;99.90
49236;DHT22;35067;48.134;8.378;2023-02-02T08:07:21;2.00;99.90
49236;DHT22;35067;48.134;8.378;2023-02-02T08:09:24;2.00;99.90
49236;DHT22;35067;48.134;8.378;2023-02-02T08:11:25;2.00;99.90
49236;DHT22;35067;48.134;8.378;2023-02-02T08:13:27;1.90;99.90
49236;DHT22;35067;48.134;8.378;2023-02-02T08:15:28;2.00;99.90
49236;DHT22;35067;48.134;8.378;2023-02-02T08:17:28;1.90;99.90
49236;DHT22;35067;48.134;8.378;2023-02-02T08:19:29;1.80;99.90
49236;DHT22;35067;48.134;8.378;2023-02-02T08:21:33;1.90;99.90
49236;DHT22;35067;48.134;8.378;2023-02-02T08:23:34;1.80;99.90
49236;DHT22;35067;48.134;8.378;2023-02-02T08:25:36;1.90;99.90
49236;DHT22;35067;48.134;8.378;2023-02-02T08:27:36;1.90;99.90
49236;DHT22;35067;48.134;8.378;2023-02-02T08:29:38;1.90;99.90
49236;DHT22;35067;48.134;8.378;2023-02-02T08:31:39;1.90;99.90
49236;DHT22;35067;48.134;8.378;2023-02-02T08:33:43;1.90;99.90
49236;DHT22;35067;48.134;8.378;2023-02-02T08:35:44;2.00;99.90
49236;DHT22;35067;48.134;8.378;2023-02-02T08:37:47;2.00;99.90
49236;DHT22;35067;48.134;8.378;2023-02-02T08:39:48;2.00;99.90
49236;DHT22;35067;48.134;8.378;2023-02-02T08:41:54;2.00;99.90
49236;DHT22;35067;48.134;8.378;2023-02-02T08:43:55;2.00;99.90
49236;DHT22;35067;48.134;8.378;2023-02-02T08:45:56;2.10;99.90
49236;DHT22;35067;48.134;8.378;2023-02-02T08:47:57;2.10;99.90
49236;DHT22;35067;48.134;8.378;2023-02-02T08:49:57;2.10;99.90
49236;DHT22;35067;48.134;8.378;2023-02-02T08:51:58;2.20;99.90
49236;DHT22;35067;48.134;8.378;2023-02-02T08:53:59;2.20;99.90
49236;DHT22;35067;48.134;8.378;2023-02-02T08:56:13;2.20;99.90
49236;DHT22;35067;48.134;8.378;2023-02-02T08:58:21;2.20;99.90
49236;DHT22;35067;48.134;8.378;2023-02-02T09:00:22;2.30;99.90
49236;DHT22;35067;48.134;8.378;2023-02-02T09:02:23;2.40;99.90
49236;DHT22;35067;48.134;8.378;2023-02-02T09:04:24;2.30;99.90
49236;DHT22;35067;48.134;8.378;2023-02-02T09:06:31;2.40;99.90
49236;DHT22;35067;48.134;8.378;2023-02-02T09:08:32;2.40;99.90
49236;DHT22;35067;48.134;8.378;2023-02-02T09:10:35;2.40;99.90
49236;DHT22;35067;48.134;8.378;2023-02-02T09:12:36;2.40;99.90
49236;DHT22;35067;48.134;8.378;2023-02-02T09:14:37;2.40;99.90
49236;DHT22;35067;48.134;8.378;2023-02-02T09:16:38;2.40;99.90
49236;DHT22;35067;48.134;8.378;2023-02-02T09:18:40;2.40;99.90
49236;DHT22;35067;48.134;8.378;2023-02-02T09:20:41;2.30;99.90
49236;DHT22;35067;48.134;8.378;2023-02-02T09:22:42;2.30;99.90
49236;DHT22;35067;48.134;8.378;2023-02-02T09:24:43;2.40;99.90
49236;DHT22;35067;48.134;8.378;2023-02-02T09:26:44;2.50;99.90
49236;DHT22;35067;48.134;8.378;2023-02-02T09:28:47;2.50;99.90
49236;DHT22;35067;48.134;8.378;2023-02-02T09:31:00;2.50;99.90
49236;DHT22;35067;48.134;8.378;2023-02-02T09:33:01;2.40;99.90
49236;DHT22;35067;48.134;8.378;2023-02-02T09:35:02;2.50;99.90
49236;DHT22;35067;48.134;8.378;2023-02-02T09:37:03;2.50;99.90
49236;DHT22;35067;48.134;8.378;2023-02-02T09:39:05;2.50;99.90
49236;DHT22;35067;48.134;8.378;2023-02-02T09:46:03;2.60;99.90
49236;DHT22;35067;48.134;8.378;2023-02-02T09:48:49;2.60;99.90
49236;DHT22;35067;48.134;8.378;2023-02-02T09:51:11;2.50;99.90
49236;DHT22;35067;48.134;8.378;2023-02-02T09:55:39;2.70;99.90
49236;DHT22;35067;48.134;8.378;2023-02-02T09:58:35;2.70;99.90
49236;DHT22;35067;48.134;8.378;2023-02-02T10:00:43;2.50;99.90
49236;DHT22;35067;48.134;8.378;2023-02-02T10:02:47;2.50;99.90
49236;DHT22;35067;48.134;8.378;2023-02-02T10:04:55;2.40;99.90
49236;DHT22;35067;48.134;8.378;2023-02-02T10:07:18;2.40;99.90
49236;DHT22;35067;48.134;8.378;2023-02-02T10:09:43;2.40;99.90
49236;DHT22;35067;48.134;8.378;2023-02-02T10:12:26;2.50;99.90
49236;DHT22;35067;48.134;8.378;2023-02-02T10:15:13;2.40;99.90
49236;DHT22;35067;48.134;8.378;2023-02-02T10:17:50;2.40;99.90
49236;DHT22;35067;48.134;8.378;2023-02-02T10:19:57;2.50;99.90
49236;DHT22;35067;48.134;8.378;2023-02-02T10:22:18;2.60;99.90
49236;DHT22;35067;48.134;8.378;2023-02-02T10:24:23;2.60;99.90
49236;DHT22;35067;48.134;8.378;2023-02-02T10:26:41;2.80;99.90
49236;DHT22;35067;48.134;8.378;2023-02-02T10:31:48;3.00;99.90
49236;DHT22;35067;48.134;8.378;2023-02-02T10:34:42;3.10;99.90
49236;DHT22;35067;48.134;8.378;2023-02-02T10:39:35;3.70;99.90
49236;DHT22;35067;48.134;8.378;2023-02-02T10:46:41;3.40;99.90
49236;DHT22;35067;48.134;8.378;2023-02-02T10:48:45;3.30;99.90
49236;DHT22;35067;48.134;8.378;2023-02-02T10:50:49;3.20;99.90
49236;DHT22;35067;48.134;8.378;2023-02-02T10:52:55;3.10;99.90
49236;DHT22;35067;48.134;8.378;2023-02-02T10:55:23;3.10;99.90
49236;DHT22;35067;48.134;8.378;2023-02-02T10:57:52;3.20;99.90
49236;DHT22;35067;48.134;8.378;2023-02-02T11:02:19;3.40;99.90
49236;DHT22;35067;48.134;8.378;2023-02-02T11:04:21;3.30;99.90
49236;DHT22;35067;48.134;8.378;2023-02-02T11:06:41;3.20;99.90
49236;DHT22;35067;48.134;8.378;2023-02-02T11:08:52;3.20;99.90
49236;DHT22;35067;48.134;8.378;2023-02-02T11:10:57;3.30;99.90
49236;DHT22;35067;48.134;8.378;2023-02-02T11:13:13;3.40;99.90
49236;DHT22;35067;48.134;8.378;2023-02-02T11:15:25;3.40;99.90
49236;DHT22;35067;48.134;8.378;2023-02-02T11:17:30;3.40;99.90
49236;DHT22;35067;48.134;8.378;2023-02-02T11:19:34;3.40;99.90
49236;DHT22;35067;48.134;8.378;2023-02-02T11:21:36;3.40;99.90
49236;DHT22;35067;48.134;8.378;2023-02-02T11:23:37;3.40;99.90
49236;DHT22;35067;48.134;8.378;2023-02-02T11:25:38;3.40;99.90
49236;DHT22;35067;48.134;8.378;2023-02-02T11:27:40;3.60;99.90
49236;DHT22;35067;48.134;8.378;2023-02-02T11:29:46;3.60;99.90
49236;DHT22;35067;48.134;8.378;2023-02-02T11:31:49;3.70;99.90
49236;DHT22;35067;48.134;8.378;2023-02-02T11:33:49;3.60;99.90
49236;DHT22;35067;48.134;8.378;2023-02-02T11:36:02;3.50;99.90
49236;DHT22;35067;48.134;8.378;2023-02-02T11:38:08;3.30;99.90
49236;DHT22;35067;48.134;8.378;2023-02-02T11:42:45;3.10;99.90
49236;DHT22;35067;48.134;8.378;2023-02-02T11:44:52;3.10;99.90
49236;DHT22;35067;48.134;8.378;2023-02-02T11:46:55;3.10;99.90
49236;DHT22;35067;48.134;8.378;2023-02-02T11:49:11;3.10;99.90
49236;DHT22;35067;48.134;8.378;2023-02-02T11:51:21;3.20;99.90
49236;DHT22;35067;48.134;8.378;2023-02-02T11:53:26;3.10;99.90
49236;DHT22;35067;48.134;8.378;2023-02-02T11:55:30;3.00;99.90
49236;DHT22;35067;48.134;8.378;2023-02-02T11:57:32;3.00;99.90
49236;DHT22;35067;48.134;8.378;2023-02-02T11:59:40;3.20;99.90
49236;DHT22;35067;48.134;8.378;2023-02-02T12:01:41;3.20;99.90
49236;DHT22;35067;48.134;8.378;2023-02-02T12:03:47;3.20;99.90
49236;DHT22;35067;48.134;8.378;2023-02-02T12:05:48;3.20;99.90
49236;DHT22;35067;48.134;8.378;2023-02-02T12:07:49;3.20;99.90
49236;DHT22;35067;48.134;8.378;2023-02-02T12:09:50;3.20;99.90
49236;DHT22;35067;48.134;8.378;2023-02-02T12:12:19;3.20;99.90
49236;DHT22;35067;48.134;8.378;2023-02-02T12:15:05;3.20;99.90
49236;DHT22;35067;48.134;8.378;2023-02-02T12:22:05;3.30;99.90
49236;DHT22;35067;48.134;8.378;2023-02-02T12:27:16;3.30;99.90
49236;DHT22;35067;48.134;8.378;2023-02-02T12:29:33;3.30;99.90
49236;DHT22;35067;48.134;8.378;2023-02-02T12:43:48;3.30;99.90
49236;DHT22;35067;48.134;8.378;2023-02-02T12:58:37;3.10;99.90
49236;DHT22;35067;48.134;8.378;2023-02-02T13:01:06;3.20;99.90
49236;DHT22;35067;48.134;8.378;2023-02-02T13:08:47;3.10;99.90
49236;DHT22;35067;48.134;8.378;2023-02-02T13:11:14;3.20;99.90
49236;DHT22;35067;48.134;8.378;2023-02-02T13:13:36;3.20;99.90
49236;DHT22;35067;48.134;8.378;2023-02-02T13:15:43;3.20;99.90
49236;DHT22;35067;48.134;8.378;2023-02-02T13:17:55;3.20;99.90
49236;DHT22;35067;48.134;8.378;2023-02-02T13:20:00;3.20;99.90
49236;DHT22;35067;48.134;8.378;2023-02-02T13:22:05;3.30;99.90
49236;DHT22;35067;48.134;8.378;2023-02-02T13:24:14;3.30;99.90
49236;DHT22;35067;48.134;8.378;2023-02-02T13:26:28;3.30;99.90
49236;DHT22;35067;48.134;8.378;2023-02-02T13:34:04;3.10;99.90
49236;DHT22;35067;48.134;8.378;2023-02-02T13:36:26;3.00;99.90
49236;DHT22;35067;48.134;8.378;2023-02-02T13:38:30;2.90;99.90
49236;DHT22;35067;48.134;8.378;2023-02-02T13:40:41;3.10;99.90
49236;DHT22;35067;48.134;8.378;2023-02-02T13:43:14;3.10;99.90
49236;DHT22;35067;48.134;8.378;2023-02-02T13:45:32;3.10;99.90
49236;DHT22;35067;48.134;8.378;2023-02-02T13:47:43;3.10;99.90
49236;DHT22;35067;48.134;8.378;2023-02-02T13:49:54;3.20;99.90
49236;DHT22;35067;48.134;8.378;2023-02-02T14:00:34;3.30;99.90
49236;DHT22;35067;48.134;8.378;2023-02-02T14:04:31;3.20;99.90
49236;DHT22;35067;48.134;8.378;2023-02-02T14:06:52;3.20;99.90
49236;DHT22;35067;48.134;8.378;2023-02-02T14:08:59;3.20;99.90
49236;DHT22;35067;48.134;8.378;2023-02-02T14:11:03;3.20;99.90
49236;DHT22;35067;48.134;8.378;2023-02-02T14:15:36;3.10;99.90
49236;DHT22;35067;48.134;8.378;2023-02-02T14:19:46;3.20;99.90
49236;DHT22;35067;48.134;8.378;2023-02-02T14:22:02;3.20;99.90
49236;DHT22;35067;48.134;8.378;2023-02-02T14:26:56;3.20;99.90
49236;DHT22;35067;48.134;8.378;2023-02-02T14:28:57;3.20;99.90
49236;DHT22;35067;48.134;8.378;2023-02-02T14:31:25;3.00;99.90
49236;DHT22;35067;48.134;8.378;2023-02-02T14:33:37;3.00;99.90
49236;DHT22;35067;48.134;8.378;2023-02-02T14:37:53;3.00;99.90
49236;DHT22;35067;48.134;8.378;2023-02-02T14:42:19;3.10;99.90
49236;DHT22;35067;48.134;8.378;2023-02-02T14:47:45;3.10;99.90
49236;DHT22;35067;48.134;8.378;2023-02-02T14:49:47;3.00;99.90
49236;DHT22;35067;48.134;8.378;2023-02-02T14:51:52;3.10;99.90
49236;DHT22;35067;48.134;8.378;2023-02-02T14:54:13;3.10;99.90
49236;DHT22;35067;48.134;8.378;2023-02-02T14:56:19;3.10;99.90
49236;DHT22;35067;48.134;8.378;2023-02-02T14:58:36;3.00;99.90
49236;DHT22;35067;48.134;8.378;2023-02-02T15:00:38;3.00;99.90
49236;DHT22;35067;48.134;8.378;2023-02-02T15:02:39;2.80;99.90
49236;DHT22;35067;48.134;8.378;2023-02-02T15:04:42;2.70;99.90
49236;DHT22;35067;48.134;8.378;2023-02-02T15:06:44;2.70;99.90
49236;DHT22;35067;48.134;8.378;2023-02-02T15:08:45;2.70;99.90
49236;DHT22;35067;48.134;8.378;2023-02-02T15:14:09;2.60;99.90
49236;DHT22;35067;48.134;8.378;2023-02-02T15:16:35;2.50;99.90
49236;DHT22;35067;48.134;8.378;2023-02-02T15:18:43;2.60;99.90
49236;DHT22;35067;48.134;8.378;2023-02-02T15:20:49;2.70;99.90
49236;DHT22;35067;48.134;8.378;2023-02-02T15:27:30;2.60;99.90